FW1817 Weather Reports


time (UTC)temp
C
wind
direction
speed
KPH
gust
KPH
rain 1hr
cm
rain 24hr
cm
rain mn
cm
humidity
%
barometer
mb
20200229102516 11 45 3.2 3.2 0.00 0.41 0.00 90 1013.5
20200229101516 11 45 1.6 3.2 0.00 0.41 0.00 89 1013.7
20200229100516 11 45 3.2 4.8 0.00 0.41 0.00 89 1013.9
20200229095516 11 45 1.6 3.2 0.00 0.41 0.00 89 1013.9
20200229094516 11 45 3.2 4.8 0.00 0.41 0.00 88 1014.0
20200229093518 11 0 4.8 6.4 0.00 0.41 0.00 89 1014.1
20200229092516 11 0.0 1.6 0.00 0.41 0.00 87 1014.3
20200229091516 11 0 1.6 3.2 0.00 0.41 0.00 87 1014.6
20200229090516 11 0 3.2 4.8 0.00 0.41 0.00 86 1014.8
20200229085516 12 0.0 4.8 0.00 0.41 0.00 85 1015.0
20200229084516 12 270 1.6 4.8 0.00 0.41 0.00 85 1015.3
20200229083516 13 0.0 3.2 0.00 0.41 0.00 86 1015.5
20200229082516 13 247 1.6 3.2 0.00 0.41 0.00 86 1015.4
20200229081516 13 0.0 1.6 0.00 0.41 0.00 86 1015.5
20200229080516 13 0.0 0.0 0.00 0.41 0.00 86 1015.7
20200229075516 13 0.0 0.0 0.00 0.41 0.00 86 1015.8
20200229074516 13 0.0 1.6 0.00 0.41 0.00 85 1015.9
20200229073516 13 0.0 0.0 0.00 0.41 0.00 85 1016.0
20200229072516 13 247 1.6 3.2 0.00 0.41 0.00 85 1015.9
20200229071516 13 0.0 1.6 0.00 0.41 0.00 85 1015.8
20200229070516 14 0.0 1.6 0.00 0.41 0.00 84 1015.8
20200229065516 14 247 3.2 6.4 0.00 0.41 0.41 85 1015.8
20200229064516 14 247 3.2 6.4 0.00 0.41 0.41 86 1015.8
20200229063516 13 202 1.6 3.2 0.00 0.41 0.41 86 1015.8
20200229062516 13 0.0 0.0 0.00 0.41 0.41 86 1015.8
20200229061516 13 0.0 0.0 0.00 0.41 0.41 86 1015.7
20200229060516 13 0.0 0.0 0.00 0.41 0.41 86 1015.8
20200229055517 14 202 1.6 3.2 0.00 0.41 0.41 86 1015.7
20200229054516 14 202 3.2 4.8 0.00 0.41 0.41 87 1015.6
20200229053516 14 112 3.2 4.8 0.00 0.41 0.41 86 1015.2
20200229052516 14 112 3.2 3.2 0.00 0.41 0.41 86 1015.1
20200229051516 15 112 3.2 4.8 0.00 0.41 0.41 86 1015.2
20200229050516 15 90 1.6 3.2 0.00 0.41 0.41 85 1015.4
20200229045517 15 90 3.2 4.8 0.00 0.41 0.41 85 1015.5
20200229044516 16 45 3.2 6.4 0.00 0.41 0.41 84 1015.4
20200229043518 16 45 1.6 3.2 0.00 0.41 0.41 84 1015.6
20200229042525 16 45 1.6 3.2 0.00 0.41 0.41 84 1015.7
20200229041517 16 0.0 1.6 0.00 0.41 0.41 82 1015.7
20200229040517 16 0.0 3.2 0.00 0.41 0.41 82 1015.9
20200229035518 16 0.0 4.8 0.00 0.41 0.41 82 1015.8
20200229034516 16 0.0 3.2 0.00 0.41 0.41 81 1015.6
20200229033516 16 90 3.2 4.8 0.00 0.41 0.41 80 1015.6
20200229032516 17 270 4.8 6.4 0.00 0.41 0.41 80 1015.6
20200229031516 17 270 1.6 3.2 0.00 0.41 0.41 77 1015.4
20200229030516 17 0.0 0.0 0.00 0.41 0.41 75 1015.3
20200229025517 18 0.0 0.0 0.00 0.41 0.41 74 1015.2
20200229024515 18 0.0 0.0 0.00 0.41 0.41 73 1015.0
20200229023516 20 0.0 1.6 0.00 0.41 0.41 70 1015.1
20200229022516 20 270 1.6 3.2 0.00 0.41 0.41 70 1015.0
20200229021515 21 0.0 1.6 0.00 0.41 0.41 68 1014.9
20200229011516 23 247 4.8 8.0 0.00 0.41 0.41 60 1014.6
20200229010516 23 247 6.4 11.3 0.00 0.41 0.41 58 1014.6
20200229005516 24 247 8.0 12.9 0.00 0.41 0.41 58 1014.4
20200229004515 25 247 8.0 14.5 0.00 0.41 0.41 58 1014.5
20200229003516 25 247 9.7 16.1 0.00 0.41 0.41 56 1014.5
20200229002517 25 225 12.9 19.3 0.00 0.41 0.41 54 1014.5
20200229001516 26 247 14.5 22.5 0.00 0.41 0.41 52 1014.3
20200229000516 26 225 16.1 22.5 0.00 0.41 0.41 50 1014.3
20200228235517 26 225 14.5 24.1 0.03 0.41 0.41 49 1014.2
20200228234516 27 247 14.5 19.3 0.03 0.41 0.41 49 1013.9
20200228233516 27 225 16.1 24.1 0.05 0.41 0.41 51 1014.1
20200228232516 27 225 16.1 22.5 0.08 0.41 0.41 50 1014.2
20200228231516 27 225 16.1 24.1 0.08 0.41 0.41 55 1014.1
20200228230515 27 247 16.1 22.5 0.10 0.41 0.41 53 1014.0
20200228225516 27 247 14.5 20.9 0.08 0.38 0.38 55 1014.0
20200228224515 27 247 12.9 19.3 0.10 0.38 0.38 53 1014.1
20200228223515 27 225 8.0 16.1 0.10 0.33 0.33 52 1013.9
20200228222515 27 225 6.4 12.9 0.08 0.30 0.30 52 1013.7
20200228221515 27 270 9.7 14.5 0.10 0.30 0.30 53 1013.8
20200228220517 27 225 9.7 19.3 0.10 0.28 0.28 56 1013.8
20200228215517 27 225 8.0 16.1 0.13 0.28 0.28 55 1013.8
20200228214517 27 247 6.4 14.5 0.13 0.25 0.25 53 1014.0
20200228213517 27 225 6.4 12.9 0.13 0.25 0.25 59 1014.2
20200228212517 27 225 6.4 11.3 0.15 0.25 0.25 54 1014.3
20200228211517 27 292 6.4 11.3 0.13 0.23 0.23 55 1014.4
20200228210517 27 225 8.0 11.3 0.13 0.20 0.20 56 1014.6
20200228205517 26 225 6.4 9.7 0.13 0.18 0.18 56 1014.6
20200228204517 26 225 4.8 9.7 0.13 0.15 0.15 57 1014.8
20200228203517 26 202 3.2 6.4 0.13 0.13 0.13 63 1014.8
20200228202517 26 225 3.2 11.3 0.10 0.10 0.10 56 1014.9
20200228201517 26 202 4.8 11.3 0.10 0.10 0.10 54 1015.2
20200228200517 26 270 8.0 12.9 0.08 0.08 0.08 54 1015.3
20200228195517 26 270 4.8 12.9 0.05 0.05 0.05 55 1015.6
20200228194517 26 270 6.4 12.9 0.03 0.03 0.03 55 1015.7
20200228193517 27 247 4.8 12.9 0.00 0.00 0.00 55 1016.0
20200228192517 27 247 6.4 12.9 0.00 0.00 0.00 51 1016.2
20200228191517 27 247 6.4 12.9 0.00 0.00 0.00 52 1016.5
20200228190517 26 247 6.4 14.5 0.00 0.00 0.00 52 1016.7
20200228185517 26 292 6.4 12.9 0.00 0.00 0.00 53 1016.9
20200228184517 26 270 6.4 12.9 0.00 0.00 0.00 53 1016.8
20200228183518 25 270 6.4 16.1 0.00 0.00 0.00 55 1016.8
20200228182517 25 292 6.4 11.3 0.00 0.00 0.00 55 1016.8
20200228181518 24 270 6.4 12.9 0.00 0.00 0.00 56 1017.3
20200228180517 24 292 4.8 9.7 0.00 0.00 0.00 57 1017.3
20200228175517 23 270 4.8 12.9 0.00 0.00 0.00 60 1017.5
20200228174517 23 270 4.8 11.3 0.00 0.00 0.00 59 1017.5
20200228173517 23 270 4.8 11.3 0.00 0.00 0.00 62 1017.4
20200228172517 22 315 3.2 6.4 0.00 0.00 0.00 64 1017.5
20200228171517 22 315 6.4 9.7 0.00 0.00 0.00 62 1017.4
20200228170517 21 270 4.8 9.7 0.00 0.00 0.00 67 1017.4
20200228165517 20 315 4.8 8.0 0.00 0.00 0.00 68 1017.3
20200228164522 20 270 3.2 6.4 0.00 0.00 0.00 70 1017.3
20200228163517 20 270 4.8 11.3 0.00 0.00 0.00 70 1017.5
20200228162516 19 292 6.4 11.3 0.00 0.00 0.00 74 1017.4
20200228161516 18 270 4.8 9.7 0.00 0.00 0.00 76 1017.3
20200228160517 17 315 4.8 6.4 0.00 0.00 0.00 78 1017.0
20200228155517 17 315 4.8 8.0 0.00 0.00 0.00 81 1016.9
20200228154516 16 292 4.8 8.0 0.00 0.00 0.00 82 1017.0
20200228153517 15 292 3.2 4.8 0.00 0.00 0.00 86 1016.8
20200228152517 15 292 3.2 4.8 0.00 0.00 0.00 87 1016.7
20200228151517 13 270 3.2 4.8 0.00 0.00 0.00 88 1016.7
20200228150516 13 270 1.6 3.2 0.00 0.00 0.00 90 1016.8
20200228145516 12 292 3.2 4.8 0.00 0.00 0.00 91 1016.9
20200228144517 11 270 3.2 6.4 0.00 0.00 0.00 92 1016.8
20200228143516 11 270 1.6 3.2 0.00 0.00 0.00 92 1016.5
20200228142517 10 270 3.2 4.8 0.00 0.00 0.00 92 1016.6
20200228141516 10 270 1.6 3.2 0.00 0.00 0.00 92 1016.5
20200228140516 10 270 3.2 4.8 0.00 0.00 0.00 92 1016.4
20200228135517 10 270 3.2 4.8 0.00 0.00 0.00 92 1016.3
20200228134516 9 337 1.6 3.2 0.00 0.00 0.00 91 1016.2
20200228133518 9 0.0 3.2 0.00 0.00 0.00 91 1016.2
20200228132517 9 337 1.6 3.2 0.00 0.00 0.00 91 1016.0
20200228131516 9 0.0 1.6 0.00 0.00 0.00 91 1016.0
20200228130516 9 337 1.6 3.2 0.00 0.00 0.00 91 1015.8
20200228125516 9 337 3.2 4.8 0.00 0.00 0.00 91 1015.7
20200228124516 10 337 3.2 4.8 0.00 0.00 0.00 91 1015.5
20200228123516 10 337 4.8 8.0 0.00 0.00 0.00 91 1015.5
20200228122516 10 337 3.2 4.8 0.00 0.00 0.00 91 1015.4
20200228121516 10 337 4.8 6.4 0.00 0.00 0.00 92 1015.3
20200228120518 9 337 4.8 6.4 0.00 0.00 0.00 91 1015.2
20200228115516 9 315 3.2 4.8 0.00 0.00 0.00 91 1015.3
20200228114516 9 315 3.2 3.2 0.00 0.00 0.00 91 1015.3
20200228113516 9 315 4.8 4.8 0.00 0.00 0.00 91 1015.3
20200228112516 9 315 3.2 4.8 0.00 0.00 0.00 90 1015.3
20200228111516 9 315 3.2 4.8 0.00 0.00 0.00 90 1015.4
20200228110516 9 315 3.2 4.8 0.00 0.00 0.00 90 1015.3
20200228105516 9 292 1.6 4.8 0.00 0.00 0.00 90 1015.2
20200228104516 9 0.0 0.0 0.00 0.00 0.00 89 1015.3
20200228103516 10 0.0 3.2 0.00 0.00 0.00 90 1015.3